Terminal Aerodrome Forecast
Issued by NWS Wichita, KS

Home | Current Version | Previous Version | Text Only | Print | Product List | Glossary Off
Versions: 1 2 3 4 5 6 7 8 9 10 11 12 13 14 15 16

000
FTUS43 KICT 311512 AAB
TAFICT
TAF AMD
KICT 311512Z 3115/0112 07006KT P6SM SCT025
      TEMPO 3115/3119 BKN020
     FM312200 10007KT P6SM SCT070
     FM010800 12006KT P6SM BKN035=

USA.gov is the U.S. government's official web portal to all federal, state and local government web resources and services.